sensor_id;sensor_type;location;lat;lon;timestamp;P1;durP1;ratioP1;P2;durP2;ratioP2
32329;SDS011;18807;52.434;13.238;2023-02-03T00:06:44;9.75;;;4.88;;
32329;SDS011;18807;52.434;13.238;2023-02-03T00:14:20;9.60;;;3.42;;
32329;SDS011;18807;52.434;13.238;2023-02-03T00:21:54;4.95;;;2.80;;
32329;SDS011;18807;52.434;13.238;2023-02-03T00:29:29;8.77;;;3.20;;
32329;SDS011;18807;52.434;13.238;2023-02-03T00:37:03;8.20;;;3.13;;
32329;SDS011;18807;52.434;13.238;2023-02-03T00:44:39;7.25;;;2.60;;
32329;SDS011;18807;52.434;13.238;2023-02-03T00:52:12;7.70;;;2.53;;
32329;SDS011;18807;52.434;13.238;2023-02-03T00:59:48;11.13;;;3.37;;
32329;SDS011;18807;52.434;13.238;2023-02-03T01:07:21;9.88;;;3.42;;
32329;SDS011;18807;52.434;13.238;2023-02-03T01:14:57;10.30;;;4.03;;
32329;SDS011;18807;52.434;13.238;2023-02-03T01:22:31;8.75;;;3.65;;
32329;SDS011;18807;52.434;13.238;2023-02-03T01:30:06;10.57;;;4.30;;
32329;SDS011;18807;52.434;13.238;2023-02-03T01:37:41;6.07;;;3.72;;
32329;SDS011;18807;52.434;13.238;2023-02-03T01:45:17;12.93;;;5.10;;
32329;SDS011;18807;52.434;13.238;2023-02-03T01:52:52;11.27;;;4.40;;
32329;SDS011;18807;52.434;13.238;2023-02-03T02:00:32;10.10;;;4.95;;
32329;SDS011;18807;52.434;13.238;2023-02-03T02:08:06;9.68;;;4.63;;
32329;SDS011;18807;52.434;13.238;2023-02-03T02:15:46;7.32;;;4.68;;
32329;SDS011;18807;52.434;13.238;2023-02-03T02:23:35;6.65;;;4.50;;
32329;SDS011;18807;52.434;13.238;2023-02-03T02:31:44;6.05;;;3.58;;
32329;SDS011;18807;52.434;13.238;2023-02-03T02:39:31;7.10;;;3.67;;
32329;SDS011;18807;52.434;13.238;2023-02-03T02:47:14;7.93;;;3.97;;
32329;SDS011;18807;52.434;13.238;2023-02-03T02:54:52;7.03;;;3.35;;
32329;SDS011;18807;52.434;13.238;2023-02-03T03:02:32;6.57;;;3.60;;
32329;SDS011;18807;52.434;13.238;2023-02-03T03:10:07;3.30;;;2.30;;
32329;SDS011;18807;52.434;13.238;2023-02-03T03:17:47;3.63;;;2.25;;
32329;SDS011;18807;52.434;13.238;2023-02-03T03:25:27;3.67;;;2.42;;
32329;SDS011;18807;52.434;13.238;2023-02-03T03:33:05;2.17;;;1.40;;
32329;SDS011;18807;52.434;13.238;2023-02-03T03:40:41;2.00;;;1.55;;
32329;SDS011;18807;52.434;13.238;2023-02-03T03:48:25;2.13;;;1.30;;
32329;SDS011;18807;52.434;13.238;2023-02-03T03:56:02;2.10;;;1.70;;
32329;SDS011;18807;52.434;13.238;2023-02-03T04:03:41;2.38;;;1.60;;
32329;SDS011;18807;52.434;13.238;2023-02-03T04:11:18;2.53;;;2.25;;
32329;SDS011;18807;52.434;13.238;2023-02-03T04:19:07;4.13;;;2.10;;
32329;SDS011;18807;52.434;13.238;2023-02-03T04:26:41;4.53;;;2.50;;
32329;SDS011;18807;52.434;13.238;2023-02-03T04:34:17;5.07;;;3.50;;
32329;SDS011;18807;52.434;13.238;2023-02-03T04:41:50;5.88;;;4.45;;
32329;SDS011;18807;52.434;13.238;2023-02-03T04:49:26;13.15;;;6.70;;
32329;SDS011;18807;52.434;13.238;2023-02-03T04:57:00;17.20;;;8.15;;
32329;SDS011;18807;52.434;13.238;2023-02-03T05:04:35;15.97;;;8.83;;
32329;SDS011;18807;52.434;13.238;2023-02-03T05:12:09;21.27;;;10.60;;
32329;SDS011;18807;52.434;13.238;2023-02-03T05:19:44;23.90;;;12.10;;
32329;SDS011;18807;52.434;13.238;2023-02-03T05:27:18;24.10;;;13.38;;
32329;SDS011;18807;52.434;13.238;2023-02-03T05:34:53;32.73;;;14.47;;
32329;SDS011;18807;52.434;13.238;2023-02-03T05:42:27;30.77;;;14.27;;
32329;SDS011;18807;52.434;13.238;2023-02-03T05:50:03;31.47;;;15.10;;
32329;SDS011;18807;52.434;13.238;2023-02-03T05:57:37;34.90;;;14.90;;
32329;SDS011;18807;52.434;13.238;2023-02-03T06:05:12;37.67;;;15.47;;
32329;SDS011;18807;52.434;13.238;2023-02-03T06:12:46;36.17;;;16.83;;
32329;SDS011;18807;52.434;13.238;2023-02-03T06:20:22;35.83;;;16.38;;
32329;SDS011;18807;52.434;13.238;2023-02-03T06:27:56;35.38;;;17.98;;
32329;SDS011;18807;52.434;13.238;2023-02-03T06:35:31;30.60;;;16.50;;
32329;SDS011;18807;52.434;13.238;2023-02-03T06:43:05;35.28;;;16.27;;
32329;SDS011;18807;52.434;13.238;2023-02-03T06:50:40;40.10;;;17.20;;
32329;SDS011;18807;52.434;13.238;2023-02-03T06:58:16;36.13;;;16.58;;
32329;SDS011;18807;52.434;13.238;2023-02-03T07:05:51;37.77;;;16.77;;
32329;SDS011;18807;52.434;13.238;2023-02-03T07:13:25;35.67;;;15.48;;
32329;SDS011;18807;52.434;13.238;2023-02-03T07:21:02;34.37;;;16.70;;
32329;SDS011;18807;52.434;13.238;2023-02-03T07:28:36;29.08;;;15.32;;
32329;SDS011;18807;52.434;13.238;2023-02-03T07:36:12;31.07;;;14.97;;
32329;SDS011;18807;52.434;13.238;2023-02-03T07:43:46;30.33;;;15.40;;
32329;SDS011;18807;52.434;13.238;2023-02-03T07:51:21;29.83;;;14.43;;
32329;SDS011;18807;52.434;13.238;2023-02-03T07:58:55;27.48;;;14.20;;
32329;SDS011;18807;52.434;13.238;2023-02-03T08:06:31;23.47;;;13.70;;
32329;SDS011;18807;52.434;13.238;2023-02-03T08:14:05;19.42;;;10.98;;
32329;SDS011;18807;52.434;13.238;2023-02-03T08:21:40;21.90;;;11.37;;
32329;SDS011;18807;52.434;13.238;2023-02-03T08:29:14;15.65;;;9.55;;
32329;SDS011;18807;52.434;13.238;2023-02-03T08:36:51;15.43;;;9.25;;
32329;SDS011;18807;52.434;13.238;2023-02-03T08:44:25;17.73;;;9.85;;
32329;SDS011;18807;52.434;13.238;2023-02-03T08:52:02;17.88;;;10.77;;
32329;SDS011;18807;52.434;13.238;2023-02-03T08:59:36;15.13;;;8.68;;
32329;SDS011;18807;52.434;13.238;2023-02-03T09:07:13;16.05;;;9.75;;
32329;SDS011;18807;52.434;13.238;2023-02-03T09:14:48;16.38;;;10.23;;
32329;SDS011;18807;52.434;13.238;2023-02-03T09:22:23;12.13;;;6.80;;
32329;SDS011;18807;52.434;13.238;2023-02-03T09:29:57;15.25;;;8.07;;
32329;SDS011;18807;52.434;13.238;2023-02-03T09:37:32;14.77;;;7.20;;
32329;SDS011;18807;52.434;13.238;2023-02-03T09:45:09;14.23;;;7.15;;
32329;SDS011;18807;52.434;13.238;2023-02-03T09:52:52;11.03;;;6.57;;
32329;SDS011;18807;52.434;13.238;2023-02-03T10:00:29;11.13;;;6.60;;
32329;SDS011;18807;52.434;13.238;2023-02-03T10:08:11;12.68;;;6.13;;
32329;SDS011;18807;52.434;13.238;2023-02-03T10:16:07;11.20;;;5.47;;
32329;SDS011;18807;52.434;13.238;2023-02-03T10:23:52;9.23;;;5.03;;
32329;SDS011;18807;52.434;13.238;2023-02-03T10:31:31;10.38;;;4.97;;
32329;SDS011;18807;52.434;13.238;2023-02-03T10:39:13;7.88;;;4.32;;
32329;SDS011;18807;52.434;13.238;2023-02-03T10:46:52;10.27;;;4.97;;
32329;SDS011;18807;52.434;13.238;2023-02-03T10:54:29;6.30;;;3.10;;
32329;SDS011;18807;52.434;13.238;2023-02-03T11:02:08;2.45;;;1.42;;
32329;SDS011;18807;52.434;13.238;2023-02-03T11:09:44;6.72;;;1.48;;
32329;SDS011;18807;52.434;13.238;2023-02-03T11:17:18;14.32;;;2.10;;
32329;SDS011;18807;52.434;13.238;2023-02-03T11:24:55;9.30;;;1.75;;
32329;SDS011;18807;52.434;13.238;2023-02-03T11:32:32;13.82;;;1.65;;
32329;SDS011;18807;52.434;13.238;2023-02-03T11:40:13;18.25;;;2.17;;
32329;SDS011;18807;52.434;13.238;2023-02-03T11:47:58;9.25;;;2.38;;
32329;SDS011;18807;52.434;13.238;2023-02-03T11:55:39;8.40;;;2.08;;
32329;SDS011;18807;52.434;13.238;2023-02-03T12:03:33;13.85;;;2.28;;
32329;SDS011;18807;52.434;13.238;2023-02-03T12:11:28;17.80;;;3.13;;
32329;SDS011;18807;52.434;13.238;2023-02-03T12:19:15;15.65;;;2.42;;
32329;SDS011;18807;52.434;13.238;2023-02-03T12:26:59;21.48;;;3.88;;
32329;SDS011;18807;52.434;13.238;2023-02-03T12:34:48;23.80;;;3.80;;
32329;SDS011;18807;52.434;13.238;2023-02-03T12:42:26;14.90;;;3.83;;
32329;SDS011;18807;52.434;13.238;2023-02-03T12:50:04;19.10;;;4.85;;
32329;SDS011;18807;52.434;13.238;2023-02-03T12:57:47;18.23;;;2.90;;
32329;SDS011;18807;52.434;13.238;2023-02-03T13:05:32;26.20;;;4.32;;
32329;SDS011;18807;52.434;13.238;2023-02-03T13:13:16;24.10;;;3.55;;
32329;SDS011;18807;52.434;13.238;2023-02-03T13:20:55;10.45;;;2.03;;
32329;SDS011;18807;52.434;13.238;2023-02-03T13:28:36;5.63;;;1.33;;
32329;SDS011;18807;52.434;13.238;2023-02-03T13:44:45;9.68;;;1.90;;
32329;SDS011;18807;52.434;13.238;2023-02-03T13:52:27;14.13;;;1.80;;
32329;SDS011;18807;52.434;13.238;2023-02-03T14:00:56;8.20;;;1.70;;
32329;SDS011;18807;52.434;13.238;2023-02-03T14:16:26;21.65;;;3.30;;
32329;SDS011;18807;52.434;13.238;2023-02-03T14:24:08;24.40;;;3.63;;
32329;SDS011;18807;52.434;13.238;2023-02-03T14:31:52;15.27;;;3.42;;
32329;SDS011;18807;52.434;13.238;2023-02-03T14:47:50;30.58;;;3.85;;
32329;SDS011;18807;52.434;13.238;2023-02-03T14:55:39;23.83;;;3.55;;
32329;SDS011;18807;52.434;13.238;2023-02-03T15:03:27;29.77;;;4.03;;
32329;SDS011;18807;52.434;13.238;2023-02-03T15:11:24;25.48;;;5.15;;
32329;SDS011;18807;52.434;13.238;2023-02-03T15:19:13;14.50;;;4.03;;
32329;SDS011;18807;52.434;13.238;2023-02-03T15:26:50;22.02;;;3.58;;
32329;SDS011;18807;52.434;13.238;2023-02-03T15:34:27;17.73;;;3.38;;
32329;SDS011;18807;52.434;13.238;2023-02-03T15:42:07;18.90;;;4.13;;
32329;SDS011;18807;52.434;13.238;2023-02-03T15:49:48;14.45;;;2.47;;
32329;SDS011;18807;52.434;13.238;2023-02-03T15:57:31;15.95;;;3.03;;
32329;SDS011;18807;52.434;13.238;2023-02-03T16:05:18;22.63;;;3.67;;
32329;SDS011;18807;52.434;13.238;2023-02-03T16:13:17;19.65;;;3.92;;
32329;SDS011;18807;52.434;13.238;2023-02-03T16:28:28;17.40;;;3.80;;
32329;SDS011;18807;52.434;13.238;2023-02-03T16:36:20;17.50;;;3.63;;
32329;SDS011;18807;52.434;13.238;2023-02-03T16:44:11;31.92;;;4.78;;
32329;SDS011;18807;52.434;13.238;2023-02-03T16:52:04;24.05;;;4.18;;
32329;SDS011;18807;52.434;13.238;2023-02-03T16:59:39;15.70;;;3.95;;
32329;SDS011;18807;52.434;13.238;2023-02-03T17:07:15;25.13;;;3.73;;
32329;SDS011;18807;52.434;13.238;2023-02-03T17:14:49;26.83;;;3.88;;
32329;SDS011;18807;52.434;13.238;2023-02-03T17:22:25;17.77;;;3.50;;
32329;SDS011;18807;52.434;13.238;2023-02-03T17:29:59;33.90;;;6.15;;
32329;SDS011;18807;52.434;13.238;2023-02-03T17:37:35;16.77;;;3.78;;
32329;SDS011;18807;52.434;13.238;2023-02-03T17:45:09;15.95;;;4.30;;
32329;SDS011;18807;52.434;13.238;2023-02-03T17:53:02;25.90;;;4.10;;
32329;SDS011;18807;52.434;13.238;2023-02-03T18:08:10;23.25;;;3.63;;
32329;SDS011;18807;52.434;13.238;2023-02-03T18:15:51;25.77;;;3.92;;
32329;SDS011;18807;52.434;13.238;2023-02-03T18:23:30;15.77;;;3.17;;
32329;SDS011;18807;52.434;13.238;2023-02-03T18:31:06;22.58;;;2.83;;
32329;SDS011;18807;52.434;13.238;2023-02-03T18:38:44;14.35;;;2.97;;
32329;SDS011;18807;52.434;13.238;2023-02-03T18:46:20;21.38;;;3.88;;
32329;SDS011;18807;52.434;13.238;2023-02-03T18:53:57;17.95;;;3.10;;
32329;SDS011;18807;52.434;13.238;2023-02-03T19:01:31;24.75;;;3.05;;
32329;SDS011;18807;52.434;13.238;2023-02-03T19:09:07;16.07;;;3.27;;
32329;SDS011;18807;52.434;13.238;2023-02-03T19:16:42;17.77;;;4.55;;
32329;SDS011;18807;52.434;13.238;2023-02-03T19:24:17;14.32;;;3.55;;
32329;SDS011;18807;52.434;13.238;2023-02-03T19:31:51;17.85;;;4.03;;
32329;SDS011;18807;52.434;13.238;2023-02-03T19:39:27;14.23;;;2.63;;
32329;SDS011;18807;52.434;13.238;2023-02-03T19:47:03;13.93;;;1.98;;
32329;SDS011;18807;52.434;13.238;2023-02-03T19:54:38;12.67;;;2.23;;
32329;SDS011;18807;52.434;13.238;2023-02-03T20:02:12;10.63;;;2.42;;
32329;SDS011;18807;52.434;13.238;2023-02-03T20:09:48;13.85;;;2.10;;
32329;SDS011;18807;52.434;13.238;2023-02-03T20:17:22;13.40;;;1.95;;
32329;SDS011;18807;52.434;13.238;2023-02-03T20:24:57;8.17;;;2.37;;
32329;SDS011;18807;52.434;13.238;2023-02-03T20:32:31;11.00;;;2.05;;
32329;SDS011;18807;52.434;13.238;2023-02-03T20:40:12;9.45;;;2.10;;
32329;SDS011;18807;52.434;13.238;2023-02-03T20:47:48;13.82;;;1.88;;
32329;SDS011;18807;52.434;13.238;2023-02-03T20:55:24;8.43;;;1.35;;
32329;SDS011;18807;52.434;13.238;2023-02-03T21:02:58;5.63;;;1.98;;
32329;SDS011;18807;52.434;13.238;2023-02-03T21:10:51;10.25;;;1.67;;
32329;SDS011;18807;52.434;13.238;2023-02-03T21:18:27;7.05;;;2.38;;
32329;SDS011;18807;52.434;13.238;2023-02-03T21:26:14;5.57;;;0.80;;
32329;SDS011;18807;52.434;13.238;2023-02-03T21:33:51;4.57;;;0.63;;
32329;SDS011;18807;52.434;13.238;2023-02-03T21:41:29;0.70;;;0.40;;
32329;SDS011;18807;52.434;13.238;2023-02-03T21:49:08;3.10;;;0.68;;
32329;SDS011;18807;52.434;13.238;2023-02-03T21:56:50;1.75;;;0.70;;
32329;SDS011;18807;52.434;13.238;2023-02-03T22:04:25;0.60;;;0.40;;
32329;SDS011;18807;52.434;13.238;2023-02-03T22:12:02;0.63;;;0.28;;
32329;SDS011;18807;52.434;13.238;2023-02-03T22:19:36;1.05;;;0.35;;
32329;SDS011;18807;52.434;13.238;2023-02-03T22:27:11;1.10;;;0.40;;
32329;SDS011;18807;52.434;13.238;2023-02-03T22:34:45;2.30;;;0.60;;
32329;SDS011;18807;52.434;13.238;2023-02-03T22:42:20;0.50;;;0.50;;
32329;SDS011;18807;52.434;13.238;2023-02-03T22:49:54;1.02;;;0.50;;
32329;SDS011;18807;52.434;13.238;2023-02-03T22:57:29;1.60;;;0.73;;
32329;SDS011;18807;52.434;13.238;2023-02-03T23:05:03;0.80;;;0.52;;
32329;SDS011;18807;52.434;13.238;2023-02-03T23:20:13;1.53;;;0.83;;
32329;SDS011;18807;52.434;13.238;2023-02-03T23:27:50;1.35;;;0.77;;
32329;SDS011;18807;52.434;13.238;2023-02-03T23:35:24;1.65;;;0.77;;
32329;SDS011;18807;52.434;13.238;2023-02-03T23:43:17;4.05;;;0.90;;
32329;SDS011;18807;52.434;13.238;2023-02-03T23:50:50;1.58;;;1.30;;
32329;SDS011;18807;52.434;13.238;2023-02-03T23:58:26;2.87;;;1.23;;
